SAEZ/EZE METAR and TAF weather

Enter ICAO airport designator
Station Type Date Time Source
SAEZ METAR 2022/01/29 01:00 UTC NOAA

SAEZ 290100Z 09005KT CAVOK 20/11 Q1014 NOSIG RMK PP000


Station Type Date Time Source
SAEZ Decoded METAR 2022/01/29 01:00 UTC NOAA

Ezeiza Aerodrome, Argentina (SAEZ) 34-49S 058-32W 20M
Jan 28, 2022 - 08:00 PM EST / 2022.01.29 0100 UTC
Wind: from the E (090 degrees) at 6 MPH (5 KT):0
Visibility: greater than 7 mile(s):0
Temperature: 68 F (20 C)
Dew Point: 51 F (11 C)
Relative Humidity: 56%
Pressure (altimeter): 29.94 in. Hg (1014 hPa)
ob: SAEZ 290100Z 09005KT CAVOK 20/11 Q1014 NOSIG RMK PP000
cycle: 1

Station Type Date Time Source
SAEZ TAF 2022/01/28 18:09 UTC NOAA

TAF TAF SAEZ 281700Z 2818/2918 07005KT 9999 SCT040 TX26/2818Z TN16/2909Z
BECMG 2821/2900 09005KT CAVOK PROB30 2904/2907 5000 BR SCT010
BECMG 2909/2912 36005KT CAVOK
BECMG 2913/2916 36012KT 9999 SCT040

Example: see airport list